Aviation Digital Data Service (ADDS)

Output produced by METARs form (0535 UTC 11 December 2017)
found at http://www.aviationweather.gov/adds/metars/
 
OKBK 110500Z 26005KT 8000 NSC 08/M05 Q1025 NOSIG
TAF OKBK 110445Z 1106/1212 32012KT 7000 NSC